createdAt,value
2019-04-18T00:00:17.850Z,0
2019-04-18T00:01:19.235Z,0
2019-04-18T00:02:20.580Z,0
2019-04-18T00:03:21.934Z,0
2019-04-18T00:04:23.297Z,0
2019-04-18T00:05:24.699Z,0
2019-04-18T00:06:26.049Z,0
2019-04-18T00:07:27.408Z,0
2019-04-18T00:08:28.774Z,0
2019-04-18T00:09:30.155Z,0
2019-04-18T00:10:31.510Z,0
2019-04-18T00:11:32.863Z,0
2019-04-18T00:12:34.298Z,0
2019-04-18T00:13:35.639Z,0
2019-04-18T00:14:49.610Z,0
2019-04-18T00:15:39.164Z,0
2019-04-18T00:16:39.707Z,0
2019-04-18T00:17:41.072Z,0
2019-04-18T00:18:42.432Z,0
2019-04-18T00:19:46.341Z,0
2019-04-18T00:20:47.456Z,0
2019-04-18T00:21:49.387Z,0
2019-04-18T00:22:47.827Z,0
2019-04-18T00:23:49.173Z,0
2019-04-18T00:24:50.538Z,0
2019-04-18T00:25:51.889Z,0
2019-04-18T00:26:53.239Z,0
2019-04-18T00:27:54.637Z,0
2019-04-18T00:28:56.027Z,0
2019-04-18T00:29:59.838Z,0
2019-04-18T00:30:59.789Z,0
2019-04-18T00:32:00.062Z,0
2019-04-18T00:33:01.329Z,0
2019-04-18T00:34:13.454Z,0
2019-04-18T00:35:04.015Z,0
2019-04-18T00:36:05.357Z,0
2019-04-18T00:37:07.127Z,0
2019-04-18T00:38:08.548Z,0
2019-04-18T00:39:09.362Z,0
2019-04-18T00:40:11.630Z,0
2019-04-18T00:41:13.057Z,0
2019-04-18T00:42:13.344Z,0
2019-04-18T00:43:14.688Z,0
2019-04-18T00:44:16.049Z,0
2019-04-18T00:45:17.404Z,0
2019-04-18T00:46:18.758Z,0
2019-04-18T00:47:21.600Z,0
2019-04-18T00:48:22.780Z,0
2019-04-18T00:49:22.780Z,0
2019-04-18T00:50:24.139Z,0
2019-04-18T00:51:25.488Z,0
2019-04-18T00:52:26.841Z,0
2019-04-18T00:53:28.203Z,0
2019-04-18T00:54:29.552Z,0
2019-04-18T00:55:30.913Z,0
2019-04-18T00:56:33.995Z,0
2019-04-18T00:57:33.588Z,0
2019-04-18T00:58:34.933Z,0
2019-04-18T00:59:36.299Z,0
2019-04-18T01:00:37.914Z,0
2019-04-18T01:01:41.773Z,0
2019-04-18T01:02:41.038Z,0
2019-04-18T01:03:42.388Z,0
2019-04-18T01:04:43.750Z,0
2019-04-18T01:05:45.113Z,0
2019-04-18T01:06:48.841Z,0
2019-04-18T01:07:47.798Z,0
2019-04-18T01:08:49.150Z,0
2019-04-18T01:09:50.508Z,0
2019-04-18T01:10:51.861Z,0
2019-04-18T01:11:55.591Z,0
2019-04-18T01:12:54.533Z,0
2019-04-18T01:13:55.890Z,0
2019-04-18T01:14:57.244Z,0
2019-04-18T01:15:58.601Z,0
2019-04-18T01:17:03.385Z,0
2019-04-18T01:18:01.278Z,0
2019-04-18T01:19:03.074Z,0
2019-04-18T01:20:04.166Z,0
2019-04-18T01:21:06.118Z,0
2019-04-18T01:22:08.366Z,0
2019-04-18T01:23:07.949Z,0
2019-04-18T01:24:09.275Z,0
2019-04-18T01:25:10.773Z,0
2019-04-18T01:26:14.261Z,0
2019-04-18T01:27:15.607Z,0
2019-04-18T01:28:54.974Z,0
2019-04-18T01:29:56.315Z,0
2019-04-18T01:30:58.586Z,0
2019-04-18T01:31:58.983Z,0
2019-04-18T01:33:03.185Z,0
2019-04-18T01:34:01.753Z,0
2019-04-18T01:35:02.992Z,0
2019-04-18T01:36:04.678Z,0
2019-04-18T01:37:05.655Z,0
2019-04-18T01:38:08.754Z,0
2019-04-18T01:39:13.755Z,0
2019-04-18T01:40:10.311Z,0
2019-04-18T01:41:11.655Z,0
2019-04-18T01:42:13.011Z,0
2019-04-18T01:43:14.368Z,0
2019-04-18T01:44:15.716Z,0
2019-04-18T01:45:19.144Z,0
2019-04-18T01:46:19.934Z,0
2019-04-18T01:47:19.695Z,0
2019-04-18T01:48:21.060Z,0
2019-04-18T01:49:22.412Z,0
2019-04-18T01:50:23.780Z,0
2019-04-18T01:51:25.125Z,0
2019-04-18T01:52:26.915Z,0
2019-04-18T01:53:29.116Z,0
2019-04-18T01:54:29.120Z,0
2019-04-18T01:55:30.464Z,0
2019-04-18T01:56:31.825Z,0
2019-04-18T01:57:33.175Z,0
2019-04-18T01:58:34.852Z,0
2019-04-18T01:59:37.795Z,0
2019-04-18T02:00:37.159Z,0
2019-04-18T02:01:38.519Z,0
2019-04-18T02:02:39.870Z,0
2019-04-18T02:03:41.235Z,0
2019-04-18T02:04:59.789Z,0
2019-04-18T02:05:43.899Z,0
2019-04-18T02:06:45.244Z,0
2019-04-18T02:07:46.702Z,0
2019-04-18T02:08:51.591Z,0
2019-04-18T02:09:49.227Z,0
2019-04-18T02:10:50.585Z,0
2019-04-18T02:11:51.936Z,0
2019-04-18T02:12:53.296Z,0
2019-04-18T02:13:54.644Z,0
2019-04-18T02:14:58.911Z,0
2019-04-18T02:15:57.309Z,0
2019-04-18T02:16:58.660Z,0
2019-04-18T02:18:01.073Z,0
2019-04-18T02:19:01.860Z,0
2019-04-18T02:20:03.467Z,0
2019-04-18T02:21:07.461Z,0
2019-04-18T02:22:05.848Z,0
2019-04-18T02:23:06.671Z,0
2019-04-18T02:24:07.956Z,0
2019-04-18T02:25:09.755Z,0
2019-04-18T02:26:14.761Z,0
2019-04-18T02:27:11.895Z,0
2019-04-18T02:28:13.247Z,0
2019-04-18T02:29:14.600Z,0
2019-04-18T02:30:20.860Z,0
2019-04-18T02:31:17.270Z,0
2019-04-18T02:32:18.640Z,0
2019-04-18T02:33:19.995Z,0
2019-04-18T02:34:21.351Z,0
2019-04-18T02:35:23.152Z,0
2019-04-18T02:36:24.041Z,0
2019-04-18T02:37:25.394Z,0
2019-04-18T02:38:26.741Z,0
2019-04-18T02:39:28.454Z,0
2019-04-18T02:40:31.164Z,0
2019-04-18T02:41:30.727Z,0
2019-04-18T02:42:32.085Z,0
2019-04-18T02:43:33.645Z,0
2019-04-18T02:44:34.994Z,0
2019-04-18T02:45:36.350Z,0
2019-04-18T02:46:37.705Z,0
2019-04-18T02:47:39.245Z,0
2019-04-18T02:48:40.587Z,0
2019-04-18T02:49:41.932Z,0
2019-04-18T02:50:43.370Z,0
2019-04-18T02:51:44.609Z,0
2019-04-18T02:52:45.951Z,0
2019-04-18T02:53:47.305Z,0
2019-04-18T02:54:48.651Z,0
2019-04-18T02:55:51.308Z,0
2019-04-18T02:56:54.073Z,0
2019-04-18T02:57:52.631Z,0
2019-04-18T02:58:53.987Z,0
2019-04-18T02:59:55.341Z,0
2019-04-18T03:00:57.011Z,0
2019-04-18T03:02:01.111Z,0
2019-04-18T03:02:59.330Z,0
2019-04-18T03:04:00.786Z,0
2019-04-18T03:05:02.462Z,0
2019-04-18T03:06:03.309Z,0
2019-04-18T03:07:04.665Z,0
2019-04-18T03:08:06.136Z,0
2019-04-18T03:09:07.335Z,0
2019-04-18T03:10:10.117Z,0
2019-04-18T03:11:10.409Z,0
2019-04-18T03:12:11.310Z,0
2019-04-18T03:13:12.661Z,0
2019-04-18T03:14:14.004Z,0
2019-04-18T03:15:18.641Z,0
2019-04-18T03:16:16.681Z,0
2019-04-18T03:17:18.032Z,0
2019-04-18T03:18:19.382Z,0
2019-04-18T03:19:20.739Z,0
2019-04-18T03:20:22.095Z,0
2019-04-18T03:21:25.640Z,0
2019-04-18T03:22:24.770Z,0
2019-04-18T03:23:26.126Z,0
2019-04-18T03:24:27.482Z,0
2019-04-18T03:25:28.829Z,0
2019-04-18T03:26:30.181Z,0
2019-04-18T03:27:34.337Z,0
2019-04-18T03:28:32.846Z,0
2019-04-18T03:29:34.205Z,0
2019-04-18T03:30:35.562Z,0
2019-04-18T03:31:36.907Z,0
2019-04-18T03:32:38.756Z,0
2019-04-18T03:33:44.207Z,0
2019-04-18T03:34:43.317Z,0
2019-04-18T03:35:48.824Z,0
2019-04-18T03:36:43.510Z,0
2019-04-18T03:37:44.879Z,0
2019-04-18T03:38:46.216Z,0
2019-04-18T03:39:48.038Z,0
2019-04-18T03:40:48.890Z,0
2019-04-18T03:41:50.245Z,0
2019-04-18T03:42:51.595Z,0
2019-04-18T03:43:52.950Z,0
2019-04-18T03:44:54.300Z,0
2019-04-18T03:45:56.337Z,0
2019-04-18T03:46:57.873Z,0
2019-04-18T03:48:00.292Z,0
2019-04-18T03:48:59.589Z,0
2019-04-18T03:50:00.950Z,0
2019-04-18T03:51:05.546Z,0
2019-04-18T03:52:03.616Z,0
2019-04-18T03:53:04.974Z,0
2019-04-18T03:54:07.146Z,0
2019-04-18T03:55:07.630Z,0
2019-04-18T03:56:08.982Z,0
2019-04-18T03:57:10.769Z,0
2019-04-18T03:58:11.837Z,0
2019-04-18T03:59:16.958Z,0
2019-04-18T04:00:14.624Z,0
2019-04-18T04:01:15.597Z,0
2019-04-18T04:02:17.042Z,0
2019-04-18T04:03:18.387Z,0
2019-04-18T04:04:22.520Z,0
2019-04-18T04:05:23.849Z,0
2019-04-18T04:06:22.387Z,0
2019-04-18T04:07:25.743Z,0
2019-04-18T04:08:30.308Z,0
2019-04-18T04:09:26.551Z,0
2019-04-18T04:10:27.895Z,0
2019-04-18T04:11:29.251Z,0
2019-04-18T04:12:30.610Z,0
2019-04-18T04:13:32.976Z,0
2019-04-18T04:14:33.285Z,0
2019-04-18T04:15:34.626Z,0
2019-04-18T04:16:35.985Z,0
2019-04-18T04:17:37.339Z,0
2019-04-18T04:18:38.807Z,0
2019-04-18T04:19:40.018Z,5
2019-04-18T04:20:41.377Z,5
2019-04-18T04:21:42.722Z,5
2019-04-18T04:22:44.077Z,5
2019-04-18T04:23:45.436Z,5
2019-04-18T04:24:46.796Z,5
2019-04-18T04:25:48.151Z,11
2019-04-18T04:26:49.510Z,11
2019-04-18T04:27:54.292Z,11
2019-04-18T04:28:52.204Z,11
2019-04-18T04:29:53.552Z,16
2019-04-18T04:30:54.910Z,16
2019-04-18T04:31:57.047Z,16
2019-04-18T04:32:57.879Z,16
2019-04-18T04:33:58.905Z,22
2019-04-18T04:35:00.272Z,22
2019-04-18T04:36:01.874Z,22
2019-04-18T04:37:06.233Z,28
2019-04-18T04:38:04.345Z,28
2019-04-18T04:39:05.567Z,28
2019-04-18T04:40:07.004Z,33
2019-04-18T04:41:08.243Z,33
2019-04-18T04:42:11.776Z,39
2019-04-18T04:43:10.913Z,39
2019-04-18T04:44:12.267Z,39
2019-04-18T04:45:13.627Z,45
2019-04-18T04:46:14.984Z,50
2019-04-18T04:47:17.952Z,50
2019-04-18T04:48:21.957Z,50
2019-04-18T04:49:19.002Z,56
2019-04-18T04:50:20.355Z,56
2019-04-18T04:51:21.713Z,61
2019-04-18T04:52:26.739Z,61
2019-04-18T04:53:24.393Z,67
2019-04-18T04:54:25.749Z,67
2019-04-18T04:55:27.101Z,67
2019-04-18T04:56:28.459Z,73
2019-04-18T04:57:29.819Z,73
2019-04-18T04:58:35.258Z,78
2019-04-18T04:59:32.498Z,78
2019-04-18T05:00:33.852Z,84
2019-04-18T05:01:35.202Z,84
2019-04-18T05:02:37.198Z,90
2019-04-18T05:03:37.889Z,90
2019-04-18T05:04:39.248Z,90
2019-04-18T05:05:42.319Z,95
2019-04-18T05:06:43.664Z,95
2019-04-18T05:07:43.261Z,101
2019-04-18T05:08:44.617Z,101
2019-04-18T05:09:45.980Z,106
2019-04-18T05:10:47.859Z,106
2019-04-18T05:11:51.121Z,112
2019-04-18T05:12:50.000Z,112
2019-04-18T05:13:51.353Z,112
2019-04-18T05:14:52.706Z,118
2019-04-18T05:15:54.619Z,118
2019-04-18T05:16:55.391Z,123
2019-04-18T05:17:56.762Z,123
2019-04-18T05:18:58.112Z,123
2019-04-18T05:19:59.472Z,129
2019-04-18T05:21:01.665Z,129
2019-04-18T05:22:02.157Z,135
2019-04-18T05:23:03.514Z,135
2019-04-18T05:24:04.875Z,135
2019-04-18T05:25:09.825Z,140
2019-04-18T05:26:07.552Z,140
2019-04-18T05:27:09.082Z,146
2019-04-18T05:28:11.046Z,146
2019-04-18T05:29:14.163Z,146
2019-04-18T05:30:13.162Z,151
2019-04-18T05:31:19.446Z,151
2019-04-18T05:32:15.747Z,151
2019-04-18T05:33:17.581Z,157
2019-04-18T05:34:18.558Z,157
2019-04-18T05:35:22.876Z,157
2019-04-18T05:36:22.760Z,163
2019-04-18T05:37:22.400Z,163
2019-04-18T05:38:23.876Z,168
2019-04-18T05:39:30.153Z,168
2019-04-18T05:40:26.406Z,168
2019-04-18T05:41:27.760Z,174
2019-04-18T05:42:29.107Z,174
2019-04-18T05:43:30.460Z,174
2019-04-18T05:44:34.694Z,180
2019-04-18T05:45:33.143Z,180
2019-04-18T05:46:34.511Z,180
2019-04-18T05:47:35.883Z,185
2019-04-18T05:48:37.240Z,185
2019-04-18T05:49:38.599Z,185
2019-04-18T05:50:42.235Z,191
2019-04-18T05:51:41.274Z,191
2019-04-18T05:52:42.667Z,191
2019-04-18T05:53:44.050Z,196
2019-04-18T05:54:47.433Z,196
2019-04-18T05:55:46.714Z,196
2019-04-18T05:56:48.073Z,202
2019-04-18T05:57:49.453Z,202
2019-04-18T05:58:50.808Z,208
2019-04-18T05:59:54.473Z,208
2019-04-18T06:00:53.508Z,208
2019-04-18T06:01:54.872Z,213
2019-04-18T06:02:56.247Z,213
2019-04-18T06:04:00.253Z,213
2019-04-18T06:04:58.921Z,213
2019-04-18T06:06:00.294Z,219
2019-04-18T06:07:12.138Z,219
2019-04-18T06:08:02.979Z,219
2019-04-18T06:09:04.468Z,225
2019-04-18T06:10:05.646Z,225
2019-04-18T06:11:07.016Z,225
2019-04-18T06:12:11.163Z,230
2019-04-18T06:13:09.717Z,230
2019-04-18T06:14:11.302Z,230
2019-04-18T06:15:16.060Z,230
2019-04-18T06:16:13.712Z,236
2019-04-18T06:17:15.084Z,236
2019-04-18T06:18:16.423Z,236
2019-04-18T06:19:22.520Z,236
2019-04-18T06:20:19.112Z,241
2019-04-18T06:21:20.467Z,241
2019-04-18T06:22:21.833Z,241
2019-04-18T06:23:27.059Z,247
2019-04-18T06:24:26.036Z,264
2019-04-18T06:25:30.199Z,320
2019-04-18T06:26:32.730Z,427
2019-04-18T06:27:33.431Z,511
2019-04-18T06:28:35.697Z,540
2019-04-18T06:29:39.899Z,545
2019-04-18T06:30:41.469Z,545
2019-04-18T06:31:43.314Z,528
2019-04-18T06:32:44.677Z,540
2019-04-18T06:33:46.040Z,545
2019-04-18T06:34:47.698Z,562
2019-04-18T06:35:50.069Z,635
2019-04-18T06:36:50.597Z,646
2019-04-18T06:37:51.952Z,590
2019-04-18T06:38:53.439Z,568
2019-04-18T06:39:57.496Z,601
2019-04-18T06:40:56.168Z,601
2019-04-18T06:42:01.624Z,590
2019-04-18T06:42:58.863Z,613
2019-04-18T06:44:00.239Z,663
2019-04-18T06:45:03.187Z,770
2019-04-18T06:46:03.114Z,849
2019-04-18T06:47:04.466Z,821
2019-04-18T06:48:06.434Z,787
2019-04-18T06:49:10.719Z,776
2019-04-18T06:50:09.016Z,776
2019-04-18T06:51:09.820Z,787
2019-04-18T06:52:11.179Z,804
2019-04-18T06:53:13.110Z,804
2019-04-18T06:54:13.965Z,821
2019-04-18T06:55:15.647Z,838
2019-04-18T06:56:17.799Z,888
2019-04-18T06:57:19.430Z,967
2019-04-18T06:58:34.217Z,961
2019-04-18T06:59:22.090Z,888
2019-04-18T07:00:25.066Z,905
2019-04-18T07:01:23.169Z,888
2019-04-18T07:02:24.529Z,877
2019-04-18T07:03:25.908Z,894
2019-04-18T07:04:28.770Z,905
2019-04-18T07:05:28.654Z,905
2019-04-18T07:06:33.258Z,916
2019-04-18T07:07:38.144Z,928
2019-04-18T07:08:43.993Z,945
2019-04-18T07:09:51.703Z,950
2019-04-18T07:10:35.908Z,973
2019-04-18T07:11:37.291Z,1018
2019-04-18T07:12:40.340Z,1051
2019-04-18T07:13:39.993Z,1068
2019-04-18T07:14:41.355Z,1147
2019-04-18T07:15:42.714Z,1186
2019-04-18T07:16:45.010Z,1181
2019-04-18T07:17:45.458Z,1181
2019-04-18T07:18:46.822Z,1153
2019-04-18T07:19:48.192Z,1102
2019-04-18T07:20:51.682Z,1063
2019-04-18T07:21:50.913Z,1051
2019-04-18T07:22:52.289Z,1046
2019-04-18T07:23:53.661Z,1029
2019-04-18T07:24:55.032Z,1001
2019-04-18T07:25:56.403Z,1051
2019-04-18T07:26:57.783Z,1119
2019-04-18T07:28:01.259Z,1119
2019-04-18T07:29:40.018Z,1057
2019-04-18T07:30:44.479Z,1091
2019-04-18T07:31:42.719Z,1192
2019-04-18T07:32:44.089Z,1153
2019-04-18T07:33:45.510Z,1068
2019-04-18T07:34:46.833Z,1085
2019-04-18T07:35:48.214Z,1164
2019-04-18T07:36:49.581Z,1192
2019-04-18T07:37:51.524Z,1226
2019-04-18T07:38:52.302Z,1231
2019-04-18T07:39:53.667Z,1198
2019-04-18T07:40:55.121Z,1243
2019-04-18T07:41:56.438Z,1271
2019-04-18T07:42:57.812Z,1282
2019-04-18T07:43:59.187Z,1293
2019-04-18T07:45:00.562Z,1265
2019-04-18T07:46:01.938Z,1462
2019-04-18T07:47:04.203Z,1473
2019-04-18T07:48:04.651Z,1305
2019-04-18T07:49:06.024Z,1400
2019-04-18T07:50:08.028Z,1389
2019-04-18T07:51:08.799Z,1462
2019-04-18T07:52:10.082Z,1541
2019-04-18T07:53:11.784Z,1451
2019-04-18T07:54:13.092Z,1310
2019-04-18T07:55:14.153Z,1276
2019-04-18T07:56:15.882Z,1462
2019-04-18T07:57:21.273Z,1423
2019-04-18T07:58:18.171Z,1231
2019-04-18T07:59:20.004Z,1198
2019-04-18T08:00:21.417Z,1198
2019-04-18T08:01:22.806Z,1293
2019-04-18T08:02:23.550Z,1395
2019-04-18T08:03:39.221Z,1411
2019-04-18T08:04:26.275Z,1518
2019-04-18T08:05:27.644Z,1535
2019-04-18T08:06:29.025Z,1575
2019-04-18T08:07:30.409Z,1535
2019-04-18T08:08:31.783Z,1462
2019-04-18T08:09:38.717Z,1535
2019-04-18T08:10:34.495Z,1698
2019-04-18T08:11:35.870Z,1676
2019-04-18T08:12:40.241Z,1558
2019-04-18T08:13:38.579Z,1524
2019-04-18T08:14:39.955Z,1468
2019-04-18T08:15:41.323Z,1316
2019-04-18T08:16:42.703Z,1243
2019-04-18T08:17:44.078Z,1299
2019-04-18T08:18:45.463Z,1428
2019-04-18T08:19:46.833Z,1642
2019-04-18T08:20:48.213Z,1766
2019-04-18T08:21:49.591Z,1845
2019-04-18T08:22:50.960Z,1783
2019-04-18T08:23:52.337Z,1788
2019-04-18T08:24:53.723Z,1811
2019-04-18T08:25:55.911Z,1783
2019-04-18T08:26:56.449Z,1687
2019-04-18T08:27:57.803Z,1659
2019-04-18T08:29:01.749Z,1771
2019-04-18T08:30:00.505Z,1929
2019-04-18T08:31:02.014Z,2013
2019-04-18T08:32:04.155Z,1895
2019-04-18T08:33:04.557Z,1749
2019-04-18T08:34:05.943Z,1631
2019-04-18T08:35:07.314Z,1856
2019-04-18T08:36:08.686Z,1985
2019-04-18T08:37:10.061Z,1895
2019-04-18T08:38:11.446Z,1935
2019-04-18T08:39:13.081Z,1822
2019-04-18T08:40:14.154Z,1816
2019-04-18T08:41:15.528Z,1996
2019-04-18T08:42:17.157Z,2064
2019-04-18T08:43:18.614Z,1946
2019-04-18T08:44:23.313Z,2047
2019-04-18T08:45:21.037Z,1906
2019-04-18T08:46:22.725Z,1946
2019-04-18T08:47:23.718Z,2109
2019-04-18T08:48:25.200Z,2030
2019-04-18T08:49:26.429Z,1890
2019-04-18T08:50:27.798Z,1743
2019-04-18T08:51:29.168Z,1698
2019-04-18T08:52:30.537Z,1704
2019-04-18T08:53:47.455Z,1783
2019-04-18T08:54:33.259Z,1980
2019-04-18T08:55:34.671Z,2081
2019-04-18T08:56:36.917Z,2221
2019-04-18T08:57:37.393Z,2373
2019-04-18T08:58:38.742Z,2542
2019-04-18T08:59:40.138Z,2666
2019-04-18T09:00:41.490Z,2581
2019-04-18T09:01:42.874Z,2745
2019-04-18T09:02:44.249Z,2666
2019-04-18T09:03:45.610Z,2722
2019-04-18T09:04:47.441Z,2795
2019-04-18T09:05:49.755Z,2756
2019-04-18T09:06:52.229Z,2700
2019-04-18T09:07:51.701Z,2638
2019-04-18T09:08:53.742Z,2756
2019-04-18T09:09:54.487Z,2728
2019-04-18T09:10:55.793Z,2683
2019-04-18T09:12:01.157Z,2683
2019-04-18T09:12:57.900Z,2520
2019-04-18T09:14:04.986Z,2761
2019-04-18T09:15:00.691Z,2829
2019-04-18T09:16:02.772Z,2823
2019-04-18T09:17:03.614Z,2823
2019-04-18T09:18:09.816Z,2745
2019-04-18T09:19:06.703Z,2818
2019-04-18T09:20:11.392Z,2891
2019-04-18T09:21:17.957Z,2874
2019-04-18T09:22:10.567Z,2874
2019-04-18T09:23:12.680Z,2964
2019-04-18T09:24:19.385Z,2829
2019-04-18T09:25:14.140Z,2750
2019-04-18T09:26:15.576Z,2705
2019-04-18T09:27:20.684Z,2795
2019-04-18T09:28:17.891Z,2851
2019-04-18T09:29:19.229Z,2818
2019-04-18T09:30:24.467Z,2840
2019-04-18T09:31:22.149Z,2840
2019-04-18T09:32:23.309Z,2711
2019-04-18T09:33:25.869Z,2835
2019-04-18T09:34:29.264Z,2857
2019-04-18T09:35:27.371Z,2863
2019-04-18T09:36:30.864Z,2874
2019-04-18T09:37:30.090Z,2818
2019-04-18T09:38:33.289Z,2908
2019-04-18T09:39:32.795Z,2947
2019-04-18T09:40:34.163Z,2925
2019-04-18T09:41:35.539Z,2902
2019-04-18T09:42:36.925Z,2970
2019-04-18T09:43:40.451Z,2953
2019-04-18T09:44:39.633Z,2885
2019-04-18T09:45:41.023Z,2874
2019-04-18T09:46:42.711Z,2874
2019-04-18T09:47:43.734Z,2919
2019-04-18T09:48:45.107Z,2964
2019-04-18T09:49:46.485Z,2953
2019-04-18T09:50:48.935Z,2868
2019-04-18T09:51:49.210Z,2857
2019-04-18T09:52:50.594Z,2941
2019-04-18T09:53:51.970Z,2874
2019-04-18T09:54:53.393Z,2818
2019-04-18T09:55:54.724Z,2829
2019-04-18T09:56:56.100Z,2913
2019-04-18T09:57:57.489Z,2891
2019-04-18T09:58:58.858Z,3026
2019-04-18T10:00:09.965Z,2998
2019-04-18T10:01:01.561Z,2868
2019-04-18T10:02:02.937Z,2829
2019-04-18T10:03:04.320Z,2818
2019-04-18T10:04:06.805Z,2919
2019-04-18T10:05:21.863Z,2998
2019-04-18T10:06:08.387Z,2925
2019-04-18T10:07:09.740Z,2981
2019-04-18T10:08:11.107Z,2790
2019-04-18T10:09:12.997Z,2801
2019-04-18T10:10:13.824Z,2868
2019-04-18T10:11:17.902Z,2902
2019-04-18T10:12:17.153Z,2941
2019-04-18T10:13:17.968Z,2975
2019-04-18T10:14:19.675Z,3133
2019-04-18T10:15:25.721Z,3054
2019-04-18T10:16:22.119Z,3048
2019-04-18T10:17:23.388Z,3093
2019-04-18T10:18:25.518Z,3003
2019-04-18T10:19:26.095Z,2947
2019-04-18T10:20:29.082Z,2953
2019-04-18T10:21:28.811Z,2941
2019-04-18T10:22:30.209Z,2868
2019-04-18T10:23:31.585Z,2812
2019-04-18T10:24:32.973Z,2863
2019-04-18T10:25:36.255Z,2283
2019-04-18T10:26:35.686Z,2863
2019-04-18T10:27:37.065Z,2846
2019-04-18T10:28:38.449Z,2846
2019-04-18T10:29:39.826Z,2981
2019-04-18T10:30:41.197Z,3015
2019-04-18T10:31:42.572Z,2868
2019-04-18T10:32:43.956Z,2908
2019-04-18T10:33:45.341Z,2975
2019-04-18T10:34:46.713Z,3009
2019-04-18T10:35:48.106Z,3043
2019-04-18T10:36:49.485Z,2992
2019-04-18T10:37:50.859Z,2930
2019-04-18T10:38:52.704Z,2784
2019-04-18T10:39:53.592Z,2610
2019-04-18T10:40:54.973Z,2711
2019-04-18T10:41:56.354Z,2891
2019-04-18T10:42:57.726Z,2992
2019-04-18T10:43:59.101Z,3015
2019-04-18T10:45:00.477Z,2964
2019-04-18T10:46:01.857Z,2986
2019-04-18T10:47:03.236Z,3020
2019-04-18T10:48:04.619Z,3076
2019-04-18T10:49:05.996Z,3082
2019-04-18T10:50:07.374Z,3105
2019-04-18T10:51:08.761Z,3076
2019-04-18T10:52:10.152Z,2953
2019-04-18T10:53:11.530Z,2891
2019-04-18T10:54:12.951Z,3060
2019-04-18T10:55:14.339Z,3088
2019-04-18T10:56:15.711Z,2936
2019-04-18T10:57:17.089Z,2868
2019-04-18T10:58:18.467Z,2964
2019-04-18T10:59:20.487Z,3234
2019-04-18T11:00:21.192Z,3150
2019-04-18T11:01:22.559Z,3088
2019-04-18T11:02:23.937Z,3127
2019-04-18T11:03:25.320Z,3127
2019-04-18T11:04:29.453Z,3048
2019-04-18T11:05:31.182Z,3155
2019-04-18T11:06:32.255Z,3099
2019-04-18T11:07:30.722Z,2958
2019-04-18T11:08:32.104Z,2812
2019-04-18T11:09:33.471Z,2683
2019-04-18T11:10:34.850Z,2660
2019-04-18T11:11:36.227Z,2576
2019-04-18T11:12:37.600Z,2514
2019-04-18T11:13:38.987Z,2565
2019-04-18T11:14:40.384Z,2576
2019-04-18T11:15:41.807Z,2581
2019-04-18T11:16:43.196Z,2469
2019-04-18T11:17:44.582Z,2418
2019-04-18T11:18:45.958Z,2435
2019-04-18T11:19:47.331Z,2503
2019-04-18T11:20:48.710Z,2621
2019-04-18T11:21:50.084Z,2621
2019-04-18T11:22:51.464Z,2694
2019-04-18T11:23:52.851Z,2688
2019-04-18T11:24:54.225Z,2570
2019-04-18T11:25:56.414Z,2525
2019-04-18T11:26:56.941Z,2491
2019-04-18T11:27:58.317Z,2531
2019-04-18T11:28:59.701Z,2531
2019-04-18T11:30:01.092Z,2435
2019-04-18T11:31:02.473Z,2385
2019-04-18T11:32:04.247Z,2486
2019-04-18T11:33:05.726Z,2559
2019-04-18T11:34:07.245Z,2553
2019-04-18T11:35:08.543Z,2469
2019-04-18T11:36:09.676Z,2458
2019-04-18T11:37:10.970Z,2413
2019-04-18T11:38:11.919Z,2469
2019-04-18T11:39:13.316Z,2452
2019-04-18T11:40:14.692Z,2396
2019-04-18T11:41:16.092Z,2441
2019-04-18T11:42:17.466Z,2486
2019-04-18T11:43:18.836Z,2553
2019-04-18T11:44:20.216Z,2413
2019-04-18T11:45:21.605Z,2469
2019-04-18T11:46:22.990Z,2446
2019-04-18T11:47:24.366Z,2407
2019-04-18T11:48:25.755Z,2424
2019-04-18T11:49:27.131Z,2553
2019-04-18T11:50:28.514Z,2508
2019-04-18T11:51:29.886Z,2300
2019-04-18T11:52:31.261Z,2221
2019-04-18T11:53:32.652Z,2362
2019-04-18T11:54:34.046Z,2351
2019-04-18T11:55:35.419Z,2351
2019-04-18T11:56:36.800Z,2345
2019-04-18T11:57:38.183Z,2362
2019-04-18T11:58:39.591Z,2373
2019-04-18T11:59:40.976Z,2503
2019-04-18T12:00:42.353Z,2508
2019-04-18T12:01:43.738Z,2418
2019-04-18T12:02:45.121Z,2356
2019-04-18T12:03:46.495Z,2385
2019-04-18T12:04:47.873Z,2531
2019-04-18T12:05:50.993Z,2463
2019-04-18T12:06:50.596Z,2311
2019-04-18T12:07:51.989Z,2317
2019-04-18T12:08:53.371Z,2345
2019-04-18T12:09:54.745Z,2295
2019-04-18T12:10:56.115Z,2396
2019-04-18T12:11:57.501Z,2531
2019-04-18T12:13:00.654Z,2705
2019-04-18T12:14:00.233Z,2790
2019-04-18T12:15:01.827Z,2908
2019-04-18T12:16:03.876Z,2784
2019-04-18T12:17:04.887Z,2435
2019-04-18T12:18:05.659Z,1884
2019-04-18T12:19:07.043Z,1726
2019-04-18T12:20:08.444Z,1642
2019-04-18T12:21:10.344Z,1620
2019-04-18T12:22:11.159Z,1591
2019-04-18T12:23:12.537Z,1580
2019-04-18T12:24:13.927Z,1580
2019-04-18T12:25:17.324Z,1518
2019-04-18T12:26:16.638Z,1530
2019-04-18T12:27:18.027Z,1513
2019-04-18T12:28:19.398Z,1507
2019-04-18T12:29:20.779Z,1496
2019-04-18T12:30:22.168Z,1485
2019-04-18T12:31:30.621Z,1468
2019-04-18T12:32:24.895Z,1479
2019-04-18T12:33:26.271Z,1473
2019-04-18T12:34:27.657Z,1456
2019-04-18T12:35:29.036Z,1456
2019-04-18T12:36:30.422Z,1445
2019-04-18T12:37:34.146Z,1434
2019-04-18T12:38:33.146Z,1445
2019-04-18T12:39:34.536Z,1411
2019-04-18T12:40:35.916Z,1406
2019-04-18T12:41:37.288Z,1395
2019-04-18T12:42:38.671Z,1395
2019-04-18T12:43:40.043Z,1383
2019-04-18T12:44:41.423Z,1383
2019-04-18T12:45:42.821Z,1366
2019-04-18T12:46:44.201Z,1361
2019-04-18T12:47:45.582Z,1355
2019-04-18T12:48:46.972Z,1355
2019-04-18T12:49:48.348Z,1338
2019-04-18T12:50:49.717Z,1333
2019-04-18T12:51:51.112Z,1316
2019-04-18T12:52:52.485Z,1310
2019-04-18T12:53:53.867Z,1305
2019-04-18T12:54:55.238Z,1305
2019-04-18T12:55:58.035Z,1288
2019-04-18T12:56:58.003Z,1282
2019-04-18T12:57:59.379Z,1265
2019-04-18T12:59:00.754Z,1243
2019-04-18T13:00:02.521Z,1254
2019-04-18T13:01:03.483Z,1243
2019-04-18T13:02:04.896Z,1237
2019-04-18T13:03:06.247Z,1226
2019-04-18T13:04:07.640Z,1209
2019-04-18T13:05:09.089Z,1203
2019-04-18T13:06:10.857Z,1198
2019-04-18T13:07:11.681Z,1198
2019-04-18T13:08:13.069Z,1192
2019-04-18T13:09:14.444Z,1186
2019-04-18T13:10:15.823Z,1198
2019-04-18T13:11:17.208Z,1181
2019-04-18T13:12:18.608Z,1170
2019-04-18T13:13:20.016Z,1181
2019-04-18T13:14:21.388Z,1192
2019-04-18T13:15:22.765Z,1209
2019-04-18T13:16:24.164Z,1203
2019-04-18T13:17:25.542Z,1198
2019-04-18T13:18:26.923Z,1209
2019-04-18T13:19:28.313Z,1203
2019-04-18T13:20:29.688Z,1209
2019-04-18T13:21:31.118Z,1226
2019-04-18T13:22:32.488Z,1254
2019-04-18T13:23:34.082Z,1288
2019-04-18T13:24:35.462Z,1305
2019-04-18T13:25:36.839Z,1338
2019-04-18T13:26:38.222Z,1361
2019-04-18T13:27:39.614Z,1395
2019-04-18T13:28:40.998Z,1456
2019-04-18T13:30:21.912Z,1659
2019-04-18T13:31:23.295Z,1749
2019-04-18T13:32:24.697Z,1856
2019-04-18T13:33:26.077Z,2109
2019-04-18T13:34:27.457Z,2250
2019-04-18T13:35:28.844Z,1996
2019-04-18T13:36:30.266Z,1935
2019-04-18T13:37:31.717Z,1980
2019-04-18T13:38:33.154Z,1890
2019-04-18T13:39:34.639Z,1828
2019-04-18T13:40:36.109Z,1878
2019-04-18T13:41:37.589Z,1771
2019-04-18T13:42:39.093Z,1721
2019-04-18T13:43:40.566Z,1710
2019-04-18T13:44:42.048Z,1580
2019-04-18T13:45:43.502Z,1608
2019-04-18T13:46:44.961Z,1811
2019-04-18T13:47:46.496Z,1890
2019-04-18T13:48:47.784Z,1755
2019-04-18T13:49:49.179Z,1642
2019-04-18T13:50:50.608Z,1659
2019-04-18T13:51:52.077Z,1603
2019-04-18T13:52:53.567Z,1608
2019-04-18T13:53:57.198Z,1552
2019-04-18T13:54:56.899Z,1575
2019-04-18T13:55:57.898Z,1631
2019-04-18T13:56:59.373Z,1569
2019-04-18T13:58:00.812Z,1591
2019-04-18T13:59:02.404Z,1631
2019-04-18T14:00:03.717Z,1575
2019-04-18T14:01:05.172Z,1501
2019-04-18T14:02:18.984Z,1434
2019-04-18T14:03:08.148Z,1462
2019-04-18T14:04:09.698Z,1681
2019-04-18T14:05:11.156Z,1760
2019-04-18T14:06:12.624Z,1552
2019-04-18T14:07:14.084Z,1625
2019-04-18T14:08:15.649Z,1552
2019-04-18T14:09:17.157Z,1468
2019-04-18T14:10:18.616Z,1479
2019-04-18T14:11:20.102Z,1546
2019-04-18T14:12:21.570Z,1620